createdAt,value
2022-12-11T00:02:46.753Z,48.33
2022-12-11T00:05:14.044Z,48.66
2022-12-11T00:07:41.350Z,48.06
2022-12-11T00:10:08.649Z,48.32
2022-12-11T00:12:35.946Z,48.44
2022-12-11T00:17:58.117Z,48.13
2022-12-11T00:20:25.441Z,48.30
2022-12-11T00:22:52.029Z,47.77
2022-12-11T00:25:19.259Z,47.89
2022-12-11T00:27:46.534Z,47.78
2022-12-11T00:32:57.898Z,48.00
2022-12-11T00:35:26.228Z,47.94
2022-12-11T00:37:54.541Z,48.47
2022-12-11T00:40:21.001Z,48.09
2022-12-11T00:42:47.581Z,48.93
2022-12-11T00:48:00.809Z,47.60
2022-12-11T00:50:28.051Z,48.75
2022-12-11T00:52:55.351Z,47.76
2022-12-11T00:55:21.792Z,47.84
2022-12-11T00:57:48.309Z,47.58
2022-12-11T01:03:09.522Z,48.55
2022-12-11T01:05:36.039Z,48.24
2022-12-11T01:08:04.421Z,47.69
2022-12-11T01:10:31.893Z,47.61
2022-12-11T01:12:59.229Z,47.65
2022-12-11T01:18:13.490Z,47.52
2022-12-11T01:20:41.747Z,47.40
2022-12-11T01:23:08.277Z,48.08
2022-12-11T01:25:35.521Z,47.75
2022-12-11T01:28:02.740Z,48.36
2022-12-11T01:33:26.568Z,47.43
2022-12-11T01:35:53.800Z,47.61
2022-12-11T01:38:21.062Z,47.93
2022-12-11T01:40:49.365Z,47.36
2022-12-11T01:43:18.533Z,47.73
2022-12-11T01:48:42.446Z,47.47
2022-12-11T01:51:08.968Z,47.14
2022-12-11T01:53:37.227Z,47.38
2022-12-11T01:56:06.415Z,47.45
2022-12-11T01:58:33.645Z,47.42
2022-12-11T02:03:53.660Z,48.15
2022-12-11T02:06:22.831Z,48.24
2022-12-11T02:08:49.237Z,47.51
2022-12-11T02:11:18.409Z,47.98
2022-12-11T02:13:47.595Z,47.36
2022-12-11T02:19:08.176Z,47.09
2022-12-11T02:21:34.683Z,47.40
2022-12-11T02:24:01.091Z,47.17
2022-12-11T02:26:27.519Z,47.22
2022-12-11T02:28:55.827Z,47.16
2022-12-11T02:34:10.913Z,47.04
2022-12-11T02:36:38.158Z,47.42
2022-12-11T02:39:04.579Z,47.66
2022-12-11T02:41:30.999Z,46.85
2022-12-11T02:43:57.435Z,46.96
2022-12-11T02:49:20.843Z,46.72
2022-12-11T02:51:47.340Z,47.49
2022-12-11T02:54:13.744Z,47.09
2022-12-11T02:56:42.971Z,46.97
2022-12-11T02:59:09.492Z,48.07
2022-12-11T03:04:35.631Z,46.94
2022-12-11T03:07:02.947Z,47.06
2022-12-11T03:09:31.208Z,46.82
2022-12-11T03:11:57.628Z,46.91
2022-12-11T03:14:24.069Z,47.69
2022-12-11T03:19:36.409Z,47.05
2022-12-11T03:22:03.665Z,47.19
2022-12-11T03:24:30.098Z,47.18
2022-12-11T03:27:00.860Z,46.72
2022-12-11T03:29:30.325Z,46.79
2022-12-11T03:34:45.618Z,47.24
2022-12-11T03:37:13.894Z,46.68
2022-12-11T03:39:42.149Z,46.64
2022-12-11T03:42:10.406Z,46.71
2022-12-11T03:44:36.878Z,46.74
2022-12-11T03:49:47.221Z,46.64
2022-12-11T03:52:15.502Z,47.76
2022-12-11T03:54:41.915Z,46.71
2022-12-11T03:57:09.114Z,47.02
2022-12-11T03:59:35.548Z,46.35
2022-12-11T04:04:55.883Z,46.78
2022-12-11T04:07:22.290Z,46.64
2022-12-11T04:09:48.678Z,46.67
2022-12-11T04:12:15.104Z,46.19
2022-12-11T04:14:44.278Z,46.59
2022-12-11T04:20:04.827Z,46.66
2022-12-11T04:22:34.025Z,46.76
2022-12-11T04:25:00.435Z,46.86
2022-12-11T04:27:29.527Z,46.49
2022-12-11T04:29:55.959Z,46.43
2022-12-11T04:35:07.612Z,46.55
2022-12-11T04:37:34.074Z,47.00
2022-12-11T04:40:00.498Z,47.18
2022-12-11T04:42:26.845Z,47.40
2022-12-11T04:44:53.223Z,47.41
2022-12-11T04:50:13.575Z,47.73
2022-12-11T04:52:40.827Z,47.94
2022-12-11T04:55:07.214Z,47.61
2022-12-11T04:57:33.622Z,47.92
2022-12-11T05:00:00.135Z,47.52
2022-12-11T05:05:21.175Z,47.65
2022-12-11T05:07:47.656Z,47.52
2022-12-11T05:10:14.037Z,47.48
2022-12-11T05:12:41.258Z,47.36
2022-12-11T05:15:07.674Z,48.03
2022-12-11T05:20:20.151Z,47.29
2022-12-11T05:22:46.550Z,47.95
2022-12-11T05:25:14.780Z,46.79
2022-12-11T05:27:42.056Z,47.25
2022-12-11T05:30:08.509Z,46.61
2022-12-11T05:32:35.746Z,46.99
2022-12-11T05:35:02.500Z,46.73
2022-12-11T05:37:28.896Z,47.30
2022-12-11T05:39:55.321Z,47.00
2022-12-11T05:42:25.496Z,46.86
2022-12-11T05:44:55.182Z,47.54
2022-12-11T05:47:22.408Z,46.83
2022-12-11T05:49:51.524Z,47.17
2022-12-11T05:52:17.970Z,47.41
2022-12-11T05:54:44.312Z,47.74
2022-12-11T05:57:10.737Z,47.35
2022-12-11T05:59:37.131Z,47.39
2022-12-11T06:02:03.591Z,47.20
2022-12-11T06:04:29.990Z,47.75
2022-12-11T06:06:56.444Z,48.03
2022-12-11T06:09:22.929Z,47.15
2022-12-11T06:11:50.316Z,47.56
2022-12-11T06:14:16.746Z,47.43
2022-12-11T06:16:44.141Z,47.54
2022-12-11T06:19:11.510Z,47.68
2022-12-11T06:21:38.863Z,47.35
2022-12-11T06:24:05.283Z,47.39
2022-12-11T06:26:31.719Z,46.95
2022-12-11T06:28:59.072Z,47.01
2022-12-11T06:31:26.403Z,47.18
2022-12-11T06:33:53.803Z,46.68
2022-12-11T06:36:21.041Z,46.91
2022-12-11T06:38:48.264Z,46.52
2022-12-11T06:41:14.795Z,46.31
2022-12-11T06:43:42.075Z,46.86
2022-12-11T06:46:12.042Z,46.26
2022-12-11T06:48:38.547Z,46.05
2022-12-11T06:51:05.813Z,46.02
2022-12-11T06:53:32.225Z,45.89
2022-12-11T06:55:58.873Z,46.36
2022-12-11T06:58:26.166Z,45.66
2022-12-11T07:00:53.673Z,46.30
2022-12-11T07:03:20.970Z,46.13
2022-12-11T07:08:47.209Z,46.07
2022-12-11T07:11:15.758Z,46.54
2022-12-11T07:13:43.085Z,46.08
2022-12-11T07:16:09.546Z,46.19
2022-12-11T07:18:36.882Z,46.36
2022-12-11T07:23:49.556Z,45.82
2022-12-11T07:26:16.932Z,46.50
2022-12-11T07:28:44.232Z,45.98
2022-12-11T07:31:12.528Z,46.67
2022-12-11T07:33:39.038Z,46.14
2022-12-11T07:38:52.462Z,45.69
2022-12-11T07:41:18.937Z,46.56
2022-12-11T07:43:48.113Z,46.27
2022-12-11T07:46:14.641Z,46.15
2022-12-11T07:48:42.996Z,46.59
2022-12-11T07:54:06.030Z,46.38
2022-12-11T07:56:34.339Z,46.42
2022-12-11T07:59:01.644Z,46.27
2022-12-11T08:01:28.212Z,47.14
2022-12-11T08:03:56.552Z,46.34
2022-12-11T08:09:21.413Z,46.58
2022-12-11T08:11:49.884Z,46.39
2022-12-11T08:14:18.193Z,46.41
2022-12-11T08:16:47.448Z,46.56
2022-12-11T08:19:14.728Z,46.88
2022-12-11T08:24:37.854Z,46.21
2022-12-11T08:27:07.010Z,46.30
2022-12-11T08:29:33.379Z,46.51
2022-12-11T08:31:59.779Z,46.38
2022-12-11T08:34:26.210Z,46.07
2022-12-11T08:39:36.756Z,46.46
2022-12-11T08:42:04.016Z,46.50
2022-12-11T08:44:33.197Z,46.32
2022-12-11T08:46:59.640Z,46.68
2022-12-11T08:49:31.234Z,46.92
2022-12-11T08:54:46.801Z,46.92
2022-12-11T08:57:13.194Z,47.13
2022-12-11T08:59:40.556Z,46.76
2022-12-11T09:02:07.880Z,46.38
2022-12-11T09:04:35.213Z,46.97
2022-12-11T09:09:57.076Z,46.95
2022-12-11T09:12:23.500Z,46.54
2022-12-11T09:14:50.775Z,46.66
2022-12-11T09:17:18.001Z,46.36
2022-12-11T09:19:45.244Z,46.16
2022-12-11T09:25:05.633Z,46.71
2022-12-11T09:27:32.948Z,46.38
2022-12-11T09:30:00.228Z,46.69
2022-12-11T09:32:26.659Z,46.51
2022-12-11T09:34:53.076Z,46.71
2022-12-11T09:40:13.178Z,46.44
2022-12-11T09:42:40.458Z,46.58
2022-12-11T09:45:07.674Z,46.82
2022-12-11T09:47:34.100Z,46.53
2022-12-11T09:50:01.333Z,47.42
2022-12-11T09:55:27.429Z,46.94
2022-12-11T09:57:54.749Z,46.77
2022-12-11T10:00:21.162Z,46.83
2022-12-11T10:02:48.449Z,46.96
2022-12-11T10:05:14.914Z,46.69
2022-12-11T10:10:25.190Z,46.55
2022-12-11T10:12:52.448Z,46.47
2022-12-11T10:15:21.631Z,45.98
2022-12-11T10:17:49.925Z,46.23
2022-12-11T10:20:18.216Z,46.68
2022-12-11T10:25:30.513Z,46.41
2022-12-11T10:27:58.813Z,46.07
2022-12-11T10:30:25.274Z,46.17
2022-12-11T10:32:55.182Z,46.13
2022-12-11T10:35:21.600Z,45.89
2022-12-11T10:40:33.580Z,45.48
2022-12-11T10:42:59.995Z,45.37
2022-12-11T10:45:28.294Z,45.10
2022-12-11T10:47:54.803Z,45.36
2022-12-11T10:50:23.119Z,44.73
2022-12-11T10:55:36.197Z,45.16
2022-12-11T10:58:02.618Z,45.25
2022-12-11T11:00:31.794Z,45.00
2022-12-11T11:02:58.350Z,45.44
2022-12-11T11:05:24.802Z,44.82
2022-12-11T11:10:35.032Z,45.62
2022-12-11T11:13:01.865Z,45.03
2022-12-11T11:15:29.185Z,45.01
2022-12-11T11:17:56.252Z,45.09
2022-12-11T11:20:23.666Z,45.17
2022-12-11T11:25:33.969Z,45.09
2022-12-11T11:28:00.408Z,45.43
2022-12-11T11:30:26.915Z,45.14
2022-12-11T11:32:54.187Z,44.98
2022-12-11T11:35:20.628Z,45.74
2022-12-11T11:40:31.927Z,45.03
2022-12-11T11:42:58.366Z,45.27
2022-12-11T11:45:25.613Z,45.50
2022-12-11T11:47:52.039Z,45.31
2022-12-11T11:50:18.463Z,45.43
2022-12-11T11:52:44.898Z,45.71
2022-12-11T11:55:11.439Z,45.94
2022-12-11T11:57:38.948Z,45.78
2022-12-11T12:00:07.299Z,46.07
2022-12-11T12:02:33.868Z,45.93
2022-12-11T12:05:01.127Z,44.01
2022-12-11T12:07:28.453Z,45.10
2022-12-11T12:09:55.142Z,44.47
2022-12-11T12:12:27.505Z,44.79
2022-12-11T12:14:56.301Z,45.82
2022-12-11T12:17:23.650Z,45.17
2022-12-11T12:19:50.209Z,44.81
2022-12-11T12:22:17.498Z,44.98
2022-12-11T12:24:43.873Z,45.61
2022-12-11T12:27:43.291Z,45.75
2022-12-11T12:29:56.638Z,46.08
2022-12-11T12:32:23.041Z,46.91
2022-12-11T12:34:49.565Z,46.45
2022-12-11T12:37:15.976Z,47.50
2022-12-11T12:39:42.339Z,47.39
2022-12-11T12:42:08.832Z,46.96
2022-12-11T12:44:35.251Z,47.23
2022-12-11T12:47:01.638Z,47.19
2022-12-11T12:49:28.051Z,47.19
2022-12-11T12:51:54.396Z,47.96
2022-12-11T12:54:20.764Z,48.32
2022-12-11T12:56:47.297Z,48.04
2022-12-11T12:59:15.095Z,48.02
2022-12-11T13:01:41.654Z,48.94
2022-12-11T13:04:20.760Z,48.33
2022-12-11T13:06:54.771Z,48.32
2022-12-11T13:09:21.228Z,48.13
2022-12-11T13:11:47.583Z,48.17
2022-12-11T13:14:14.010Z,48.47
2022-12-11T13:16:40.517Z,48.05
2022-12-11T13:19:06.953Z,47.81
2022-12-11T13:21:33.317Z,48.18
2022-12-11T13:23:59.774Z,47.67
2022-12-11T13:29:11.197Z,47.08
2022-12-11T13:31:37.745Z,46.85
2022-12-11T13:34:04.394Z,46.48
2022-12-11T13:36:30.819Z,46.46
2022-12-11T13:38:58.143Z,46.42
2022-12-11T13:44:20.919Z,46.08
2022-12-11T13:46:47.421Z,46.04
2022-12-11T13:49:13.900Z,46.13
2022-12-11T13:51:40.603Z,45.95
2022-12-11T13:54:07.166Z,46.07
2022-12-11T13:59:28.043Z,45.74
2022-12-11T14:01:54.559Z,45.66
2022-12-11T14:04:22.146Z,45.65
2022-12-11T14:06:48.644Z,45.56
2022-12-11T14:09:15.137Z,45.72
2022-12-11T14:14:35.695Z,45.42
2022-12-11T14:17:02.251Z,45.36
2022-12-11T14:19:28.794Z,45.59
2022-12-11T14:21:55.325Z,45.76
2022-12-11T14:24:21.895Z,45.53
2022-12-11T14:29:47.015Z,44.84
2022-12-11T14:32:15.391Z,44.87
2022-12-11T14:34:43.744Z,44.77
2022-12-11T14:37:12.061Z,45.01
2022-12-11T14:39:40.317Z,45.04
2022-12-11T14:44:53.790Z,44.88
2022-12-11T14:47:22.102Z,45.02
2022-12-11T14:49:48.637Z,44.90
2022-12-11T14:52:15.176Z,44.93
2022-12-11T14:54:41.752Z,44.75
2022-12-11T14:59:52.437Z,44.76
2022-12-11T15:02:19.001Z,44.96
2022-12-11T15:04:45.547Z,44.77
2022-12-11T15:07:13.005Z,44.58
2022-12-11T15:09:41.316Z,44.70
2022-12-11T15:14:52.849Z,44.53
2022-12-11T15:17:19.360Z,44.51
2022-12-11T15:19:45.905Z,44.52
2022-12-11T15:22:13.389Z,44.71
2022-12-11T15:24:40.141Z,44.77
2022-12-11T15:29:51.793Z,44.77
2022-12-11T15:32:19.235Z,44.99
2022-12-11T15:34:46.728Z,44.66
2022-12-11T15:37:13.289Z,44.74
2022-12-11T15:39:39.721Z,44.68
2022-12-11T15:45:01.376Z,44.66
2022-12-11T15:47:28.877Z,44.77
2022-12-11T15:49:55.487Z,44.65
2022-12-11T15:52:22.901Z,44.92
2022-12-11T15:54:50.297Z,44.76
2022-12-11T16:00:11.877Z,44.74
2022-12-11T16:02:39.424Z,44.69
2022-12-11T16:05:06.898Z,44.63
2022-12-11T16:07:33.406Z,44.48
2022-12-11T16:09:59.915Z,44.42
2022-12-11T16:15:24.092Z,44.68
2022-12-11T16:17:50.980Z,44.70
2022-12-11T16:20:18.425Z,44.56
2022-12-11T16:22:45.108Z,44.51
2022-12-11T16:25:12.746Z,44.58
2022-12-11T16:30:23.346Z,44.72
2022-12-11T16:32:49.972Z,44.84
2022-12-11T16:35:16.481Z,44.79
2022-12-11T16:37:42.925Z,44.85
2022-12-11T16:40:10.453Z,44.58
2022-12-11T16:45:21.631Z,44.42
2022-12-11T16:47:48.120Z,44.89
2022-12-11T16:50:15.613Z,44.48
2022-12-11T16:52:42.151Z,44.70
2022-12-11T16:55:08.900Z,44.62
2022-12-11T17:00:30.467Z,44.81
2022-12-11T17:02:58.033Z,44.48
2022-12-11T17:05:24.588Z,44.49
2022-12-11T17:07:51.077Z,44.58
2022-12-11T17:10:18.529Z,44.55
2022-12-11T17:15:29.322Z,44.56
2022-12-11T17:17:55.834Z,44.35
2022-12-11T17:20:22.525Z,44.51
2022-12-11T17:22:48.958Z,44.34
2022-12-11T17:25:16.331Z,44.24
2022-12-11T17:30:37.888Z,44.55
2022-12-11T17:33:04.373Z,44.56
2022-12-11T17:35:31.769Z,44.44
2022-12-11T17:37:59.145Z,44.22
2022-12-11T17:40:26.524Z,44.38
2022-12-11T17:45:47.736Z,44.48
2022-12-11T17:48:14.195Z,44.23
2022-12-11T17:50:40.655Z,44.17
2022-12-11T17:53:07.104Z,44.34
2022-12-11T17:55:34.575Z,44.26
2022-12-11T18:00:56.150Z,43.83
2022-12-11T18:03:22.688Z,44.31
2022-12-11T18:05:49.193Z,44.49
2022-12-11T18:08:16.695Z,44.30
2022-12-11T18:10:44.156Z,44.43
2022-12-11T18:16:05.766Z,44.53
2022-12-11T18:18:32.244Z,44.53
2022-12-11T18:20:59.625Z,44.56
2022-12-11T18:23:26.155Z,44.48
2022-12-11T18:25:52.618Z,44.65
2022-12-11T18:31:03.366Z,44.75
2022-12-11T18:33:29.937Z,44.81
2022-12-11T18:35:57.345Z,44.83
2022-12-11T18:38:23.847Z,44.90
2022-12-11T18:40:50.302Z,44.76
2022-12-11T18:43:17.472Z,45.21
2022-12-11T18:45:43.940Z,45.31
2022-12-11T18:48:10.391Z,45.40
2022-12-11T18:50:37.033Z,45.29
2022-12-11T18:53:03.527Z,45.50
2022-12-11T18:55:29.988Z,45.56
2022-12-11T18:57:56.454Z,45.51
2022-12-11T19:00:23.076Z,45.53
2022-12-11T19:02:49.608Z,45.38
2022-12-11T19:05:17.044Z,45.33
2022-12-11T19:07:44.538Z,45.45
2022-12-11T19:10:11.945Z,45.43
2022-12-11T19:12:39.341Z,45.33
2022-12-11T19:15:05.810Z,45.55
2022-12-11T19:17:32.285Z,45.51
2022-12-11T19:20:02.505Z,45.53
2022-12-11T19:22:35.601Z,45.44
2022-12-11T19:25:03.009Z,45.37
2022-12-11T19:27:29.495Z,45.58
2022-12-11T19:29:55.981Z,45.34
2022-12-11T19:32:22.445Z,45.31
2022-12-11T19:34:48.901Z,45.30
2022-12-11T19:37:15.436Z,45.49
2022-12-11T19:39:41.921Z,45.42
2022-12-11T19:42:08.417Z,45.54
2022-12-11T19:44:34.894Z,45.39
2022-12-11T19:47:01.429Z,45.34
2022-12-11T19:49:27.992Z,45.54
2022-12-11T19:51:55.408Z,45.39
2022-12-11T19:54:21.861Z,45.15
2022-12-11T19:56:48.418Z,45.38
2022-12-11T19:59:15.849Z,45.14
2022-12-11T20:04:37.116Z,45.14
2022-12-11T20:07:03.595Z,45.22
2022-12-11T20:09:30.055Z,45.05
2022-12-11T20:11:56.504Z,44.99
2022-12-11T20:14:23.004Z,44.97
2022-12-11T20:19:43.590Z,44.61
2022-12-11T20:22:10.821Z,44.81
2022-12-11T20:24:37.276Z,44.75
2022-12-11T20:27:04.735Z,44.51
2022-12-11T20:29:31.244Z,44.78
2022-12-11T20:34:41.935Z,44.22
2022-12-11T20:37:08.432Z,44.30
2022-12-11T20:39:34.902Z,44.28
2022-12-11T20:42:02.317Z,43.88
2022-12-11T20:44:28.757Z,43.87
2022-12-11T20:49:39.810Z,44.78
2022-12-11T20:52:06.265Z,43.46
2022-12-11T20:54:33.549Z,43.91
2022-12-11T20:57:00.792Z,43.69
2022-12-11T20:59:27.208Z,44.04
2022-12-11T21:05:16.635Z,44.43
2022-12-11T21:07:43.153Z,44.62
2022-12-11T21:10:09.571Z,44.17
2022-12-11T21:12:35.984Z,44.62
2022-12-11T21:15:02.504Z,44.77
2022-12-11T21:20:23.072Z,44.49
2022-12-11T21:22:50.073Z,45.54
2022-12-11T21:25:16.468Z,45.22
2022-12-11T21:27:44.719Z,45.28
2022-12-11T21:30:11.963Z,44.87
2022-12-11T21:35:25.100Z,45.56
2022-12-11T21:37:51.517Z,45.19
2022-12-11T21:40:20.672Z,45.37
2022-12-11T21:42:49.861Z,44.97
2022-12-11T21:45:59.265Z,44.66
2022-12-11T21:51:02.061Z,45.09
2022-12-11T21:53:30.570Z,45.74
2022-12-11T21:55:59.739Z,45.38
2022-12-11T21:58:26.159Z,45.27
2022-12-11T22:00:52.620Z,45.41
2022-12-11T22:06:04.341Z,45.59
2022-12-11T22:08:31.775Z,45.52
2022-12-11T22:10:59.316Z,45.91
2022-12-11T22:13:25.744Z,45.55
2022-12-11T22:15:53.023Z,45.45
2022-12-11T22:21:07.336Z,45.50
2022-12-11T22:23:36.512Z,46.62
2022-12-11T22:26:02.930Z,45.78
2022-12-11T22:28:29.310Z,45.72
2022-12-11T22:30:56.585Z,45.71
2022-12-11T22:36:19.645Z,45.91
2022-12-11T22:38:46.047Z,45.92
2022-12-11T22:41:16.272Z,45.78
2022-12-11T22:43:46.199Z,46.47
2022-12-11T22:46:14.490Z,45.62
2022-12-11T22:51:25.633Z,45.78
2022-12-11T22:53:52.872Z,45.80
2022-12-11T22:56:20.126Z,45.73
2022-12-11T22:58:46.472Z,46.07
2022-12-11T23:01:12.916Z,46.48
2022-12-11T23:06:24.178Z,46.13
2022-12-11T23:08:50.555Z,45.38
2022-12-11T23:11:17.826Z,46.93
2022-12-11T23:13:44.211Z,45.39
2022-12-11T23:16:10.595Z,45.28
2022-12-11T23:21:30.921Z,45.92
2022-12-11T23:23:57.310Z,46.14
2022-12-11T23:26:24.537Z,45.18
2022-12-11T23:28:50.883Z,45.77
2022-12-11T23:31:18.197Z,45.25
2022-12-11T23:36:28.383Z,45.10
2022-12-11T23:38:55.229Z,46.02
2022-12-11T23:41:21.667Z,45.53
2022-12-11T23:43:48.902Z,46.52
2022-12-11T23:46:18.116Z,45.49
2022-12-11T23:51:38.467Z,44.98
2022-12-11T23:54:04.806Z,45.62
2022-12-11T23:56:31.131Z,44.93
2022-12-11T23:58:57.469Z,46.62
